sensor_id;sensor_type;location;lat;lon;timestamp;temperature;humidity
21590;DHT22;10957;50.968;6.828;2023-07-29T00:04:56;19.90;99.90
21590;DHT22;10957;50.968;6.828;2023-07-29T00:09:58;20.00;99.90
21590;DHT22;10957;50.968;6.828;2023-07-29T00:14:59;20.00;99.90
21590;DHT22;10957;50.968;6.828;2023-07-29T00:20:01;20.00;99.90
21590;DHT22;10957;50.968;6.828;2023-07-29T00:25:04;20.00;99.90
21590;DHT22;10957;50.968;6.828;2023-07-29T00:30:06;20.00;99.90
21590;DHT22;10957;50.968;6.828;2023-07-29T00:35:08;20.00;99.90
21590;DHT22;10957;50.968;6.828;2023-07-29T00:40:19;20.00;99.90
21590;DHT22;10957;50.968;6.828;2023-07-29T00:45:24;20.00;99.90
21590;DHT22;10957;50.968;6.828;2023-07-29T00:50:26;20.10;99.90
21590;DHT22;10957;50.968;6.828;2023-07-29T00:55:29;20.10;99.90
21590;DHT22;10957;50.968;6.828;2023-07-29T01:00:30;20.10;99.90
21590;DHT22;10957;50.968;6.828;2023-07-29T01:06:06;20.10;99.90
21590;DHT22;10957;50.968;6.828;2023-07-29T01:11:23;20.10;99.90
21590;DHT22;10957;50.968;6.828;2023-07-29T01:16:41;20.10;99.90
21590;DHT22;10957;50.968;6.828;2023-07-29T01:21:42;20.10;99.90
21590;DHT22;10957;50.968;6.828;2023-07-29T01:26:44;20.00;99.90
21590;DHT22;10957;50.968;6.828;2023-07-29T01:31:46;20.00;99.90
21590;DHT22;10957;50.968;6.828;2023-07-29T01:36:51;20.00;99.90
21590;DHT22;10957;50.968;6.828;2023-07-29T01:41:53;20.10;99.90
21590;DHT22;10957;50.968;6.828;2023-07-29T01:46:56;20.10;99.90
21590;DHT22;10957;50.968;6.828;2023-07-29T01:51:58;20.20;99.90
21590;DHT22;10957;50.968;6.828;2023-07-29T01:56:59;20.20;99.90
21590;DHT22;10957;50.968;6.828;2023-07-29T02:02:01;20.20;99.90
21590;DHT22;10957;50.968;6.828;2023-07-29T02:07:02;20.30;99.90
21590;DHT22;10957;50.968;6.828;2023-07-29T02:12:03;20.20;99.90
21590;DHT22;10957;50.968;6.828;2023-07-29T02:17:12;20.20;99.90
21590;DHT22;10957;50.968;6.828;2023-07-29T02:22:15;20.10;99.90
21590;DHT22;10957;50.968;6.828;2023-07-29T02:27:17;20.10;99.90
21590;DHT22;10957;50.968;6.828;2023-07-29T02:32:18;20.20;99.90
21590;DHT22;10957;50.968;6.828;2023-07-29T02:37:20;20.30;99.90
21590;DHT22;10957;50.968;6.828;2023-07-29T02:42:21;20.30;99.90
21590;DHT22;10957;50.968;6.828;2023-07-29T02:47:22;20.30;99.90
21590;DHT22;10957;50.968;6.828;2023-07-29T02:52:24;20.40;99.90
21590;DHT22;10957;50.968;6.828;2023-07-29T02:57:25;20.40;99.90
21590;DHT22;10957;50.968;6.828;2023-07-29T03:02:26;20.40;99.90
21590;DHT22;10957;50.968;6.828;2023-07-29T03:07:28;20.40;99.90
21590;DHT22;10957;50.968;6.828;2023-07-29T03:12:29;20.40;99.90
21590;DHT22;10957;50.968;6.828;2023-07-29T03:17:30;20.40;99.90
21590;DHT22;10957;50.968;6.828;2023-07-29T03:22:31;20.40;99.90
21590;DHT22;10957;50.968;6.828;2023-07-29T03:27:33;20.40;99.90
21590;DHT22;10957;50.968;6.828;2023-07-29T03:32:35;20.40;99.90
21590;DHT22;10957;50.968;6.828;2023-07-29T03:37:36;20.40;99.90
21590;DHT22;10957;50.968;6.828;2023-07-29T03:42:37;20.40;99.90
21590;DHT22;10957;50.968;6.828;2023-07-29T03:47:38;20.40;99.90
21590;DHT22;10957;50.968;6.828;2023-07-29T03:52:40;20.40;99.90
21590;DHT22;10957;50.968;6.828;2023-07-29T03:57:41;20.40;99.90
21590;DHT22;10957;50.968;6.828;2023-07-29T04:02:42;20.40;99.90
21590;DHT22;10957;50.968;6.828;2023-07-29T04:07:46;20.30;99.90
21590;DHT22;10957;50.968;6.828;2023-07-29T04:12:47;20.30;99.90
21590;DHT22;10957;50.968;6.828;2023-07-29T04:17:49;20.30;99.90
21590;DHT22;10957;50.968;6.828;2023-07-29T04:22:50;20.20;99.90
21590;DHT22;10957;50.968;6.828;2023-07-29T04:27:52;20.20;99.90
21590;DHT22;10957;50.968;6.828;2023-07-29T04:32:53;20.10;99.90
21590;DHT22;10957;50.968;6.828;2023-07-29T04:37:55;20.20;99.90
21590;DHT22;10957;50.968;6.828;2023-07-29T04:42:56;20.10;99.90
21590;DHT22;10957;50.968;6.828;2023-07-29T04:47:58;20.10;99.90
21590;DHT22;10957;50.968;6.828;2023-07-29T04:53:00;20.10;99.90
21590;DHT22;10957;50.968;6.828;2023-07-29T04:58:01;20.20;99.90
21590;DHT22;10957;50.968;6.828;2023-07-29T05:03:03;20.20;99.90
21590;DHT22;10957;50.968;6.828;2023-07-29T05:08:04;20.20;99.90
21590;DHT22;10957;50.968;6.828;2023-07-29T05:13:05;20.20;99.90
21590;DHT22;10957;50.968;6.828;2023-07-29T05:18:07;20.20;99.90
21590;DHT22;10957;50.968;6.828;2023-07-29T05:23:08;20.20;99.90
21590;DHT22;10957;50.968;6.828;2023-07-29T05:28:10;20.20;99.90
21590;DHT22;10957;50.968;6.828;2023-07-29T05:33:11;20.20;99.90
21590;DHT22;10957;50.968;6.828;2023-07-29T05:38:14;20.20;99.90
21590;DHT22;10957;50.968;6.828;2023-07-29T05:43:16;20.20;99.90
21590;DHT22;10957;50.968;6.828;2023-07-29T05:48:19;20.10;99.90
21590;DHT22;10957;50.968;6.828;2023-07-29T05:53:21;20.10;99.90
21590;DHT22;10957;50.968;6.828;2023-07-29T05:58:22;20.20;99.90
21590;DHT22;10957;50.968;6.828;2023-07-29T06:03:24;20.30;99.90
21590;DHT22;10957;50.968;6.828;2023-07-29T06:08:26;20.20;99.90
21590;DHT22;10957;50.968;6.828;2023-07-29T06:13:29;20.30;99.90
21590;DHT22;10957;50.968;6.828;2023-07-29T06:18:30;20.30;99.90
21590;DHT22;10957;50.968;6.828;2023-07-29T06:23:32;20.10;99.90
21590;DHT22;10957;50.968;6.828;2023-07-29T06:28:33;19.90;99.90
21590;DHT22;10957;50.968;6.828;2023-07-29T06:33:35;19.50;99.90
21590;DHT22;10957;50.968;6.828;2023-07-29T06:38:36;19.30;99.90
21590;DHT22;10957;50.968;6.828;2023-07-29T06:43:38;19.10;99.90
21590;DHT22;10957;50.968;6.828;2023-07-29T06:48:39;18.90;99.90
21590;DHT22;10957;50.968;6.828;2023-07-29T06:53:40;18.90;99.90
21590;DHT22;10957;50.968;6.828;2023-07-29T06:58:41;19.00;99.90
21590;DHT22;10957;50.968;6.828;2023-07-29T07:03:42;19.10;15.70
21590;DHT22;10957;50.968;6.828;2023-07-29T07:08:44;19.40;1.00
21590;DHT22;10957;50.968;6.828;2023-07-29T07:13:45;19.20;1.00
21590;DHT22;10957;50.968;6.828;2023-07-29T07:18:46;19.20;1.00
21590;DHT22;10957;50.968;6.828;2023-07-29T07:23:50;19.30;1.00
21590;DHT22;10957;50.968;6.828;2023-07-29T07:28:51;19.50;1.00
21590;DHT22;10957;50.968;6.828;2023-07-29T07:33:52;19.50;1.00
21590;DHT22;10957;50.968;6.828;2023-07-29T07:38:54;19.80;1.00
21590;DHT22;10957;50.968;6.828;2023-07-29T07:43:55;19.80;1.00
21590;DHT22;10957;50.968;6.828;2023-07-29T07:48:56;19.40;1.00
21590;DHT22;10957;50.968;6.828;2023-07-29T07:53:58;19.50;1.00
21590;DHT22;10957;50.968;6.828;2023-07-29T07:58:59;19.70;1.00
21590;DHT22;10957;50.968;6.828;2023-07-29T08:04:00;19.70;1.00
21590;DHT22;10957;50.968;6.828;2023-07-29T08:09:01;20.20;1.00
21590;DHT22;10957;50.968;6.828;2023-07-29T08:14:03;20.30;99.90
21590;DHT22;10957;50.968;6.828;2023-07-29T08:19:04;20.30;99.90
21590;DHT22;10957;50.968;6.828;2023-07-29T08:24:08;20.30;99.90
21590;DHT22;10957;50.968;6.828;2023-07-29T08:29:12;20.00;99.90
21590;DHT22;10957;50.968;6.828;2023-07-29T08:34:14;21.00;99.90
21590;DHT22;10957;50.968;6.828;2023-07-29T08:39:15;21.10;99.90
21590;DHT22;10957;50.968;6.828;2023-07-29T08:44:25;20.60;46.70
21590;DHT22;10957;50.968;6.828;2023-07-29T08:49:27;20.10;1.00
21590;DHT22;10957;50.968;6.828;2023-07-29T08:54:29;20.00;1.00
21590;DHT22;10957;50.968;6.828;2023-07-29T08:59:31;20.10;1.00
21590;DHT22;10957;50.968;6.828;2023-07-29T09:04:32;20.40;27.90
21590;DHT22;10957;50.968;6.828;2023-07-29T09:09:33;20.00;58.80
21590;DHT22;10957;50.968;6.828;2023-07-29T09:14:35;20.10;99.90
21590;DHT22;10957;50.968;6.828;2023-07-29T09:19:36;20.00;99.90
21590;DHT22;10957;50.968;6.828;2023-07-29T09:24:37;20.20;99.90
21590;DHT22;10957;50.968;6.828;2023-07-29T09:29:38;20.00;82.30
21590;DHT22;10957;50.968;6.828;2023-07-29T09:34:42;20.50;42.40
21590;DHT22;10957;50.968;6.828;2023-07-29T09:39:45;21.00;1.00
21590;DHT22;10957;50.968;6.828;2023-07-29T09:44:49;21.10;11.90
21590;DHT22;10957;50.968;6.828;2023-07-29T09:49:51;21.40;1.00
21590;DHT22;10957;50.968;6.828;2023-07-29T09:54:52;21.10;1.00
21590;DHT22;10957;50.968;6.828;2023-07-29T09:59:56;22.00;1.00
21590;DHT22;10957;50.968;6.828;2023-07-29T10:04:58;22.70;1.00
21590;DHT22;10957;50.968;6.828;2023-07-29T10:10:02;22.50;1.00
21590;DHT22;10957;50.968;6.828;2023-07-29T10:15:05;21.90;1.00
21590;DHT22;10957;50.968;6.828;2023-07-29T10:20:11;21.60;1.00
21590;DHT22;10957;50.968;6.828;2023-07-29T10:25:21;21.30;1.00
21590;DHT22;10957;50.968;6.828;2023-07-29T10:30:24;21.10;1.00
21590;DHT22;10957;50.968;6.828;2023-07-29T10:35:26;21.00;1.00
21590;DHT22;10957;50.968;6.828;2023-07-29T10:40:53;20.50;1.00
21590;DHT22;10957;50.968;6.828;2023-07-29T10:45:57;20.40;29.70
21590;DHT22;10957;50.968;6.828;2023-07-29T10:51:35;20.50;47.90
21590;DHT22;10957;50.968;6.828;2023-07-29T10:56:40;20.60;1.00
21590;DHT22;10957;50.968;6.828;2023-07-29T11:01:44;20.80;22.90
21590;DHT22;10957;50.968;6.828;2023-07-29T11:17:26;21.30;1.00
21590;DHT22;10957;50.968;6.828;2023-07-29T11:22:28;21.20;1.00
21590;DHT22;10957;50.968;6.828;2023-07-29T11:27:29;21.20;1.00
21590;DHT22;10957;50.968;6.828;2023-07-29T11:32:31;21.20;1.00
21590;DHT22;10957;50.968;6.828;2023-07-29T11:37:34;21.20;1.00
21590;DHT22;10957;50.968;6.828;2023-07-29T11:42:37;21.60;1.00
21590;DHT22;10957;50.968;6.828;2023-07-29T11:47:38;21.80;1.00
21590;DHT22;10957;50.968;6.828;2023-07-29T11:52:41;21.80;1.00
21590;DHT22;10957;50.968;6.828;2023-07-29T11:57:44;22.00;1.00
21590;DHT22;10957;50.968;6.828;2023-07-29T12:02:46;22.60;1.00
21590;DHT22;10957;50.968;6.828;2023-07-29T12:07:48;23.00;1.00
21590;DHT22;10957;50.968;6.828;2023-07-29T12:12:50;23.30;1.00
21590;DHT22;10957;50.968;6.828;2023-07-29T12:17:53;23.40;1.00
21590;DHT22;10957;50.968;6.828;2023-07-29T12:22:58;23.60;1.00
21590;DHT22;10957;50.968;6.828;2023-07-29T12:28:06;23.10;1.00
21590;DHT22;10957;50.968;6.828;2023-07-29T12:33:08;22.80;1.00
21590;DHT22;10957;50.968;6.828;2023-07-29T12:38:09;23.00;1.00
21590;DHT22;10957;50.968;6.828;2023-07-29T12:43:10;23.40;1.00
21590;DHT22;10957;50.968;6.828;2023-07-29T12:48:12;23.00;1.00
21590;DHT22;10957;50.968;6.828;2023-07-29T12:53:13;22.50;1.00
21590;DHT22;10957;50.968;6.828;2023-07-29T12:58:14;22.40;1.00
21590;DHT22;10957;50.968;6.828;2023-07-29T13:03:15;22.40;1.00
21590;DHT22;10957;50.968;6.828;2023-07-29T13:08:17;22.80;1.00
21590;DHT22;10957;50.968;6.828;2023-07-29T13:13:18;23.10;1.00
21590;DHT22;10957;50.968;6.828;2023-07-29T13:18:20;22.90;1.00
21590;DHT22;10957;50.968;6.828;2023-07-29T13:23:21;22.60;1.00
21590;DHT22;10957;50.968;6.828;2023-07-29T13:28:23;22.30;1.00
21590;DHT22;10957;50.968;6.828;2023-07-29T13:33:24;21.90;1.00
21590;DHT22;10957;50.968;6.828;2023-07-29T13:38:25;21.60;1.00
21590;DHT22;10957;50.968;6.828;2023-07-29T13:43:27;21.30;1.00
21590;DHT22;10957;50.968;6.828;2023-07-29T13:48:28;20.90;1.00
21590;DHT22;10957;50.968;6.828;2023-07-29T13:53:29;20.60;99.90
21590;DHT22;10957;50.968;6.828;2023-07-29T13:58:31;20.30;99.90
21590;DHT22;10957;50.968;6.828;2023-07-29T14:03:32;20.40;99.90
21590;DHT22;10957;50.968;6.828;2023-07-29T14:08:33;20.50;1.00
21590;DHT22;10957;50.968;6.828;2023-07-29T14:13:36;20.90;1.00
21590;DHT22;10957;50.968;6.828;2023-07-29T14:18:37;21.30;1.00
21590;DHT22;10957;50.968;6.828;2023-07-29T14:23:38;21.50;1.00
21590;DHT22;10957;50.968;6.828;2023-07-29T14:28:40;21.60;99.90
21590;DHT22;10957;50.968;6.828;2023-07-29T14:33:41;21.70;99.90
21590;DHT22;10957;50.968;6.828;2023-07-29T14:38:42;22.20;99.90
21590;DHT22;10957;50.968;6.828;2023-07-29T14:43:43;21.60;99.90
21590;DHT22;10957;50.968;6.828;2023-07-29T14:48:45;21.30;99.90
21590;DHT22;10957;50.968;6.828;2023-07-29T14:53:48;21.00;99.90
21590;DHT22;10957;50.968;6.828;2023-07-29T14:58:49;21.30;99.90
21590;DHT22;10957;50.968;6.828;2023-07-29T15:03:51;21.10;1.00
21590;DHT22;10957;50.968;6.828;2023-07-29T15:08:53;20.80;1.00
21590;DHT22;10957;50.968;6.828;2023-07-29T15:13:54;20.70;1.00
21590;DHT22;10957;50.968;6.828;2023-07-29T15:19:03;20.60;1.00
21590;DHT22;10957;50.968;6.828;2023-07-29T15:24:17;21.10;99.90
21590;DHT22;10957;50.968;6.828;2023-07-29T15:29:18;22.10;99.90
21590;DHT22;10957;50.968;6.828;2023-07-29T15:34:20;21.90;99.90
21590;DHT22;10957;50.968;6.828;2023-07-29T15:39:21;21.80;99.90
21590;DHT22;10957;50.968;6.828;2023-07-29T15:44:22;22.00;99.90
21590;DHT22;10957;50.968;6.828;2023-07-29T15:49:24;21.50;99.90
21590;DHT22;10957;50.968;6.828;2023-07-29T15:54:26;21.30;99.90
21590;DHT22;10957;50.968;6.828;2023-07-29T15:59:27;21.20;99.90
21590;DHT22;10957;50.968;6.828;2023-07-29T16:04:28;21.10;99.90
21590;DHT22;10957;50.968;6.828;2023-07-29T16:09:30;21.00;99.90
21590;DHT22;10957;50.968;6.828;2023-07-29T16:14:31;20.80;99.90
21590;DHT22;10957;50.968;6.828;2023-07-29T16:19:32;20.80;99.90
21590;DHT22;10957;50.968;6.828;2023-07-29T16:24:33;20.80;99.90
21590;DHT22;10957;50.968;6.828;2023-07-29T16:29:35;21.30;1.00
21590;DHT22;10957;50.968;6.828;2023-07-29T16:34:38;21.80;99.90
21590;DHT22;10957;50.968;6.828;2023-07-29T16:39:39;22.00;99.90
21590;DHT22;10957;50.968;6.828;2023-07-29T16:44:40;21.90;99.90
21590;DHT22;10957;50.968;6.828;2023-07-29T16:49:42;21.80;99.90
21590;DHT22;10957;50.968;6.828;2023-07-29T16:54:43;21.60;99.90
21590;DHT22;10957;50.968;6.828;2023-07-29T16:59:44;21.10;99.90
21590;DHT22;10957;50.968;6.828;2023-07-29T17:04:45;21.10;99.90
21590;DHT22;10957;50.968;6.828;2023-07-29T17:09:47;21.00;99.90
21590;DHT22;10957;50.968;6.828;2023-07-29T17:14:48;20.90;99.90
21590;DHT22;10957;50.968;6.828;2023-07-29T17:19:49;21.20;99.90
21590;DHT22;10957;50.968;6.828;2023-07-29T17:24:51;21.10;99.90
21590;DHT22;10957;50.968;6.828;2023-07-29T17:29:52;20.90;99.90
21590;DHT22;10957;50.968;6.828;2023-07-29T17:34:53;20.80;99.90
21590;DHT22;10957;50.968;6.828;2023-07-29T17:39:54;20.50;1.00
21590;DHT22;10957;50.968;6.828;2023-07-29T17:44:56;20.50;1.00
21590;DHT22;10957;50.968;6.828;2023-07-29T17:49:57;20.40;1.00
21590;DHT22;10957;50.968;6.828;2023-07-29T17:54:58;20.30;1.00
21590;DHT22;10957;50.968;6.828;2023-07-29T18:05:44;20.30;1.00
21590;DHT22;10957;50.968;6.828;2023-07-29T18:10:45;20.10;38.20
21590;DHT22;10957;50.968;6.828;2023-07-29T18:15:51;19.90;67.90
21590;DHT22;10957;50.968;6.828;2023-07-29T18:20:53;19.90;99.90
21590;DHT22;10957;50.968;6.828;2023-07-29T18:25:54;19.90;99.90
21590;DHT22;10957;50.968;6.828;2023-07-29T18:30:57;19.90;99.90
21590;DHT22;10957;50.968;6.828;2023-07-29T18:35:59;20.00;99.90
21590;DHT22;10957;50.968;6.828;2023-07-29T18:41:02;20.00;99.90
21590;DHT22;10957;50.968;6.828;2023-07-29T18:46:03;19.90;99.90
21590;DHT22;10957;50.968;6.828;2023-07-29T18:51:04;19.90;99.90
21590;DHT22;10957;50.968;6.828;2023-07-29T18:56:06;19.90;99.90
21590;DHT22;10957;50.968;6.828;2023-07-29T19:01:07;19.90;99.90
21590;DHT22;10957;50.968;6.828;2023-07-29T19:06:09;19.80;99.90
21590;DHT22;10957;50.968;6.828;2023-07-29T19:11:10;19.70;99.90
21590;DHT22;10957;50.968;6.828;2023-07-29T19:16:12;19.50;99.90
21590;DHT22;10957;50.968;6.828;2023-07-29T19:21:14;19.60;99.90
21590;DHT22;10957;50.968;6.828;2023-07-29T19:26:16;19.60;99.90
21590;DHT22;10957;50.968;6.828;2023-07-29T19:31:21;19.70;99.90
21590;DHT22;10957;50.968;6.828;2023-07-29T19:36:23;19.60;99.90
21590;DHT22;10957;50.968;6.828;2023-07-29T19:41:24;19.70;99.90
21590;DHT22;10957;50.968;6.828;2023-07-29T19:46:28;19.70;99.90
21590;DHT22;10957;50.968;6.828;2023-07-29T19:51:29;19.60;99.90
21590;DHT22;10957;50.968;6.828;2023-07-29T19:56:30;19.60;99.90
21590;DHT22;10957;50.968;6.828;2023-07-29T20:01:32;19.60;99.90
21590;DHT22;10957;50.968;6.828;2023-07-29T20:06:33;19.50;99.90
21590;DHT22;10957;50.968;6.828;2023-07-29T20:11:36;19.50;99.90
21590;DHT22;10957;50.968;6.828;2023-07-29T20:22:37;19.50;99.90
21590;DHT22;10957;50.968;6.828;2023-07-29T20:27:38;19.50;99.90
21590;DHT22;10957;50.968;6.828;2023-07-29T20:32:41;19.40;99.90
21590;DHT22;10957;50.968;6.828;2023-07-29T20:37:43;19.50;99.90
21590;DHT22;10957;50.968;6.828;2023-07-29T20:55:13;19.30;99.90
21590;DHT22;10957;50.968;6.828;2023-07-29T21:00:14;19.20;99.90
21590;DHT22;10957;50.968;6.828;2023-07-29T21:05:15;19.10;99.90
21590;DHT22;10957;50.968;6.828;2023-07-29T21:10:17;19.10;99.90
21590;DHT22;10957;50.968;6.828;2023-07-29T21:15:18;19.10;99.90
21590;DHT22;10957;50.968;6.828;2023-07-29T21:20:19;19.00;99.90
21590;DHT22;10957;50.968;6.828;2023-07-29T21:25:20;19.10;99.90
21590;DHT22;10957;50.968;6.828;2023-07-29T21:30:21;19.00;99.90
21590;DHT22;10957;50.968;6.828;2023-07-29T21:35:23;19.00;99.90
21590;DHT22;10957;50.968;6.828;2023-07-29T21:40:24;18.90;99.90
21590;DHT22;10957;50.968;6.828;2023-07-29T21:45:25;18.80;99.90
21590;DHT22;10957;50.968;6.828;2023-07-29T21:50:26;18.70;99.90
21590;DHT22;10957;50.968;6.828;2023-07-29T21:55:27;18.70;99.90
21590;DHT22;10957;50.968;6.828;2023-07-29T22:00:29;18.60;99.90
21590;DHT22;10957;50.968;6.828;2023-07-29T22:05:30;18.60;99.90
21590;DHT22;10957;50.968;6.828;2023-07-29T22:10:31;18.70;99.90
21590;DHT22;10957;50.968;6.828;2023-07-29T22:15:36;18.60;99.90
21590;DHT22;10957;50.968;6.828;2023-07-29T22:20:38;18.60;99.90
21590;DHT22;10957;50.968;6.828;2023-07-29T22:25:39;18.50;99.90
21590;DHT22;10957;50.968;6.828;2023-07-29T22:30:40;18.40;99.90
21590;DHT22;10957;50.968;6.828;2023-07-29T22:35:41;18.30;99.90
21590;DHT22;10957;50.968;6.828;2023-07-29T22:40:49;18.30;99.90
21590;DHT22;10957;50.968;6.828;2023-07-29T22:45:58;18.20;99.90
21590;DHT22;10957;50.968;6.828;2023-07-29T22:50:59;18.20;99.90
21590;DHT22;10957;50.968;6.828;2023-07-29T22:56:01;18.10;99.90
21590;DHT22;10957;50.968;6.828;2023-07-29T23:01:02;18.10;99.90
21590;DHT22;10957;50.968;6.828;2023-07-29T23:06:03;18.10;99.90
21590;DHT22;10957;50.968;6.828;2023-07-29T23:11:04;18.00;99.90
21590;DHT22;10957;50.968;6.828;2023-07-29T23:16:06;18.00;99.90
21590;DHT22;10957;50.968;6.828;2023-07-29T23:21:07;17.90;99.90
21590;DHT22;10957;50.968;6.828;2023-07-29T23:26:08;17.80;99.90
21590;DHT22;10957;50.968;6.828;2023-07-29T23:31:09;17.70;99.90
21590;DHT22;10957;50.968;6.828;2023-07-29T23:36:10;17.70;99.90
21590;DHT22;10957;50.968;6.828;2023-07-29T23:41:12;17.60;99.90
21590;DHT22;10957;50.968;6.828;2023-07-29T23:46:13;17.60;99.90
21590;DHT22;10957;50.968;6.828;2023-07-29T23:51:14;17.50;99.90
21590;DHT22;10957;50.968;6.828;2023-07-29T23:56:16;17.50;99.90
